createdAt,value
2023-01-10T03:58:22.073Z,68.23
2023-01-10T04:00:47.023Z,66.42
2023-01-10T04:01:56.024Z,66.03
2023-01-10T04:03:05.210Z,65.40
2023-01-10T04:04:15.007Z,65.25
2023-01-10T04:05:24.623Z,65.23
2023-01-10T04:06:35.066Z,65.24
2023-01-10T04:07:43.668Z,65.43
2023-01-10T04:08:53.195Z,64.90
2023-01-10T04:10:04.463Z,64.82
2023-01-10T04:11:14.992Z,64.94
2023-01-10T04:12:24.244Z,64.08
2023-01-10T04:13:33.491Z,63.85
2023-01-10T04:14:43.097Z,63.50
2023-01-10T04:15:52.733Z,63.80
2023-01-10T04:17:01.969Z,64.06
2023-01-10T04:19:28.084Z,63.28
2023-01-10T04:20:37.944Z,63.16
2023-01-10T04:21:54.771Z,63.25
2023-01-10T04:23:03.928Z,63.30
2023-01-10T04:24:13.591Z,63.39
2023-01-10T04:25:23.712Z,63.75
2023-01-10T04:26:33.775Z,63.84
2023-01-10T04:27:42.354Z,63.74
2023-01-10T04:28:51.001Z,63.50
2023-01-10T04:30:00.127Z,63.64
2023-01-10T04:31:09.119Z,63.84
2023-01-10T04:32:18.217Z,63.36
2023-01-10T04:33:29.033Z,63.10
2023-01-10T04:34:38.781Z,63.02
2023-01-10T04:35:49.353Z,63.26
2023-01-10T04:38:13.623Z,63.41
2023-01-10T04:39:22.649Z,63.30
2023-01-10T04:40:32.337Z,63.44
2023-01-10T04:41:42.035Z,63.39
2023-01-10T04:42:52.291Z,63.49
2023-01-10T04:44:08.518Z,63.46
2023-01-10T04:45:20.325Z,63.59
2023-01-10T04:46:51.063Z,63.47
2023-01-10T04:48:00.327Z,63.55
2023-01-10T04:49:11.495Z,63.26
2023-01-10T04:50:21.187Z,63.25
2023-01-10T04:51:30.208Z,63.54
2023-01-10T04:52:41.620Z,63.67
2023-01-10T04:53:50.940Z,63.75
2023-01-10T04:56:19.598Z,63.88
2023-01-10T04:57:28.235Z,63.94
2023-01-10T04:58:38.407Z,63.85
2023-01-10T04:59:47.992Z,63.87
2023-01-10T05:00:58.455Z,63.77
2023-01-10T05:02:07.272Z,63.20
2023-01-10T05:03:18.280Z,63.14
2023-01-10T05:04:28.278Z,62.92
2023-01-10T05:05:38.398Z,63.27
2023-01-10T05:08:01.902Z,63.75
2023-01-10T05:09:12.861Z,64.00
2023-01-10T05:10:21.180Z,63.83
2023-01-10T05:11:30.879Z,63.24
2023-01-10T05:12:40.233Z,62.58
2023-01-10T05:13:49.158Z,62.51
2023-01-10T05:14:57.697Z,62.53
2023-01-10T05:16:07.259Z,62.53
2023-01-10T05:17:16.855Z,62.52
2023-01-10T05:18:29.713Z,62.79
2023-01-10T05:19:38.282Z,62.94
2023-01-10T05:20:47.122Z,63.10
2023-01-10T05:21:56.504Z,62.98
2023-01-10T05:23:06.224Z,63.09
2023-01-10T05:24:15.881Z,63.24
2023-01-10T05:25:25.605Z,63.48
2023-01-10T05:26:35.544Z,63.35
2023-01-10T05:27:51.577Z,63.09
2023-01-10T05:29:00.117Z,63.11
2023-01-10T05:30:13.091Z,62.52
2023-01-10T05:31:22.557Z,62.11
2023-01-10T05:32:33.270Z,61.74
2023-01-10T05:33:48.727Z,61.77
2023-01-10T05:34:57.701Z,61.58
2023-01-10T05:36:07.814Z,61.37
2023-01-10T05:37:17.509Z,61.54
2023-01-10T05:38:26.124Z,61.85
2023-01-10T05:39:38.071Z,61.77
2023-01-10T05:40:47.240Z,61.99
2023-01-10T05:41:55.851Z,62.14
2023-01-10T05:43:06.556Z,62.21
2023-01-10T05:44:16.238Z,62.38
2023-01-10T05:45:25.167Z,62.04
2023-01-10T05:46:34.638Z,61.94
2023-01-10T05:47:45.639Z,61.86
2023-01-10T05:48:55.161Z,61.72
2023-01-10T05:51:20.535Z,61.65
2023-01-10T05:52:30.107Z,61.65
2023-01-10T05:53:39.767Z,61.82
2023-01-10T05:54:49.123Z,61.84
2023-01-10T05:56:01.245Z,61.76
2023-01-10T05:57:09.970Z,61.55
2023-01-10T05:58:19.593Z,61.43
2023-01-10T05:59:28.897Z,61.02
2023-01-10T06:00:40.320Z,60.69
2023-01-10T06:01:49.165Z,60.61
2023-01-10T06:02:58.210Z,60.85
2023-01-10T06:04:07.563Z,60.48
2023-01-10T06:05:18.285Z,60.55
2023-01-10T06:07:43.708Z,60.64
2023-01-10T06:08:59.788Z,60.75
2023-01-10T06:10:09.521Z,61.01
2023-01-10T06:11:18.465Z,61.26
2023-01-10T06:12:27.784Z,61.12
2023-01-10T06:13:36.326Z,61.11
2023-01-10T06:14:45.997Z,61.51
2023-01-10T06:15:55.080Z,61.42
2023-01-10T06:17:06.462Z,61.28
2023-01-10T06:18:16.043Z,60.35
2023-01-10T06:19:25.581Z,60.35
2023-01-10T06:20:35.325Z,60.42
2023-01-10T06:22:05.933Z,60.60
2023-01-10T06:23:15.097Z,60.65
2023-01-10T06:24:23.771Z,60.73
2023-01-10T06:25:37.423Z,60.65
2023-01-10T06:26:47.231Z,60.99
2023-01-10T06:27:58.093Z,60.61
2023-01-10T06:29:06.748Z,60.27
2023-01-10T06:30:15.814Z,60.24
2023-01-10T06:31:26.806Z,60.29
2023-01-10T06:32:37.891Z,60.30
2023-01-10T06:33:49.292Z,60.65
2023-01-10T06:34:58.848Z,60.64
2023-01-10T06:36:08.521Z,60.68
2023-01-10T06:37:20.111Z,60.71
2023-01-10T06:38:27.805Z,60.63
2023-01-10T06:39:37.941Z,60.60
2023-01-10T06:40:47.177Z,60.75
2023-01-10T06:41:56.294Z,60.62
2023-01-10T06:43:06.093Z,60.56
2023-01-10T06:44:14.663Z,60.30
2023-01-10T06:45:23.292Z,60.40
2023-01-10T06:46:32.361Z,60.47
2023-01-10T06:47:42.575Z,60.09
2023-01-10T06:48:53.113Z,60.17
2023-01-10T06:50:02.430Z,60.40
2023-01-10T06:51:12.369Z,60.68
2023-01-10T06:52:21.039Z,60.66
2023-01-10T06:53:30.125Z,60.67
2023-01-10T06:54:39.436Z,60.02
2023-01-10T06:57:24.944Z,58.79
2023-01-10T06:58:34.522Z,58.88
2023-01-10T06:59:43.168Z,59.18
2023-01-10T07:00:53.199Z,58.84
2023-01-10T07:02:02.879Z,59.31
2023-01-10T07:03:11.978Z,59.54
2023-01-10T07:04:20.630Z,58.95
2023-01-10T07:05:30.526Z,58.30
2023-01-10T07:06:40.804Z,58.53
2023-01-10T07:07:50.437Z,58.38
2023-01-10T07:08:58.951Z,58.41
2023-01-10T07:10:10.252Z,58.32
2023-01-10T07:11:18.894Z,57.82
2023-01-10T07:12:28.553Z,57.97
2023-01-10T07:13:38.047Z,57.95
2023-01-10T07:14:47.340Z,57.78
2023-01-10T07:16:11.398Z,58.00
2023-01-10T07:17:20.425Z,57.66
2023-01-10T07:18:29.513Z,57.54
2023-01-10T07:19:38.241Z,57.20
2023-01-10T07:20:47.066Z,57.20
2023-01-10T07:21:55.620Z,57.29
2023-01-10T07:23:06.210Z,57.49
2023-01-10T07:24:14.955Z,57.56
2023-01-10T07:25:25.302Z,57.53
2023-01-10T07:26:34.335Z,57.71
2023-01-10T07:27:43.844Z,57.96
2023-01-10T07:28:52.739Z,57.83
2023-01-10T07:30:01.901Z,57.94
2023-01-10T07:31:13.463Z,57.65
2023-01-10T07:32:22.140Z,57.15
2023-01-10T07:33:31.391Z,56.96
2023-01-10T07:34:39.912Z,57.11
2023-01-10T07:35:48.991Z,57.36
2023-01-10T07:36:58.168Z,57.26
2023-01-10T07:38:08.480Z,57.02
2023-01-10T07:39:17.118Z,56.95
2023-01-10T07:40:27.404Z,56.09
2023-01-10T07:41:37.760Z,55.29
2023-01-10T07:42:46.370Z,55.49
2023-01-10T07:43:55.250Z,55.40
2023-01-10T07:45:07.277Z,55.89
2023-01-10T07:46:16.886Z,55.88
2023-01-10T07:47:25.690Z,55.66
2023-01-10T07:48:36.141Z,55.63
2023-01-10T07:49:45.364Z,56.06
2023-01-10T07:50:58.652Z,55.71
2023-01-10T07:52:09.815Z,55.91
2023-01-10T07:54:33.549Z,55.53
2023-01-10T07:55:43.579Z,55.70
2023-01-10T07:56:53.456Z,55.78
2023-01-10T07:58:03.154Z,55.09
2023-01-10T07:59:13.393Z,55.10
2023-01-10T08:00:22.613Z,55.29
2023-01-10T08:01:31.219Z,55.44
2023-01-10T08:02:39.885Z,55.41
2023-01-10T08:03:49.928Z,55.58
2023-01-10T08:04:58.488Z,55.65
2023-01-10T08:06:13.135Z,55.22
2023-01-10T08:07:23.184Z,55.13
2023-01-10T08:08:35.372Z,54.78
2023-01-10T08:09:44.815Z,54.74
2023-01-10T08:10:55.338Z,54.99
2023-01-10T08:12:05.080Z,55.42
2023-01-10T08:13:18.814Z,54.98
2023-01-10T08:14:25.211Z,54.67
2023-01-10T08:15:34.153Z,54.40
2023-01-10T08:16:42.938Z,54.13
2023-01-10T08:17:52.394Z,54.24
2023-01-10T08:19:01.308Z,54.37
2023-01-10T08:20:11.362Z,54.00
2023-01-10T08:21:21.122Z,53.82
2023-01-10T08:22:29.790Z,54.27
2023-01-10T08:23:38.356Z,54.20
2023-01-10T08:24:47.115Z,53.90
2023-01-10T08:25:59.782Z,54.15
2023-01-10T08:27:08.528Z,53.87
2023-01-10T08:28:17.281Z,53.69
2023-01-10T08:29:28.096Z,54.00
2023-01-10T08:30:38.101Z,53.94
2023-01-10T08:31:47.146Z,54.31
2023-01-10T08:32:57.009Z,53.95
2023-01-10T08:34:06.647Z,54.04
2023-01-10T08:35:15.470Z,54.01
2023-01-10T08:36:27.857Z,54.07
2023-01-10T08:37:36.597Z,54.14
2023-01-10T08:38:47.352Z,54.26
2023-01-10T08:39:56.442Z,54.04
2023-01-10T08:41:05.892Z,53.50
2023-01-10T08:42:18.539Z,53.74
2023-01-10T08:43:27.497Z,53.66
2023-01-10T08:44:37.653Z,53.29
2023-01-10T08:45:47.139Z,53.38
2023-01-10T08:46:56.363Z,53.55
2023-01-10T08:48:09.165Z,53.66
2023-01-10T08:50:33.453Z,53.47
2023-01-10T08:51:42.513Z,53.25
2023-01-10T08:52:51.556Z,53.38
2023-01-10T08:54:01.254Z,53.59
2023-01-10T08:55:11.383Z,54.04
2023-01-10T08:56:20.773Z,54.19
2023-01-10T08:58:45.297Z,54.20
2023-01-10T08:59:54.960Z,54.33
2023-01-10T09:01:06.667Z,54.89
2023-01-10T09:02:15.958Z,55.03
2023-01-10T09:03:25.263Z,54.73
2023-01-10T09:04:35.127Z,54.02
2023-01-10T09:05:45.034Z,53.47
2023-01-10T09:06:55.504Z,53.44
2023-01-10T09:08:04.895Z,53.41
2023-01-10T09:09:13.497Z,53.03
2023-01-10T09:10:23.996Z,52.76
2023-01-10T09:11:33.778Z,53.06
2023-01-10T09:12:54.577Z,53.47
2023-01-10T09:14:04.063Z,54.14
2023-01-10T09:15:14.687Z,53.93
2023-01-10T09:16:30.952Z,54.05
2023-01-10T09:17:40.618Z,53.64
2023-01-10T09:18:50.769Z,53.47
2023-01-10T09:20:00.262Z,53.57
2023-01-10T09:21:08.996Z,53.11
2023-01-10T09:22:18.041Z,52.80
2023-01-10T09:23:28.181Z,52.57
2023-01-10T09:24:42.241Z,52.78
2023-01-10T09:25:55.287Z,52.89
2023-01-10T09:27:05.050Z,52.81
2023-01-10T09:28:14.564Z,52.97
2023-01-10T09:29:23.279Z,53.28
2023-01-10T09:30:32.626Z,53.22
2023-01-10T09:31:42.265Z,53.49
2023-01-10T13:08:25.566Z,49.90
2023-01-10T13:09:34.772Z,50.01
2023-01-10T13:10:49.056Z,49.98
2023-01-10T13:13:52.064Z,48.50
2023-01-10T13:15:04.246Z,49.05
2023-01-10T13:16:19.613Z,48.90
2023-01-10T13:19:03.825Z,48.65
2023-01-10T13:21:43.076Z,48.67
2023-01-10T13:24:19.859Z,48.40
2023-01-10T13:27:04.268Z,48.54
2023-01-10T13:28:26.516Z,48.75
2023-01-10T13:31:00.875Z,48.49
2023-01-10T13:32:28.124Z,48.42
2023-01-10T13:36:43.520Z,47.31
2023-01-10T13:40:39.938Z,46.93
2023-01-10T13:42:19.549Z,46.26
2023-01-10T13:43:36.333Z,46.29
2023-01-10T13:45:04.702Z,46.43
2023-01-10T13:46:21.414Z,47.09
2023-01-10T13:49:03.184Z,46.75
2023-01-10T13:53:36.573Z,46.25
2023-01-10T13:55:02.693Z,46.41
2023-01-10T13:58:05.402Z,45.76
2023-01-10T13:59:43.951Z,45.86
2023-01-10T14:02:31.353Z,46.05
2023-01-10T14:03:53.037Z,46.39
2023-01-10T14:05:10.965Z,46.39
2023-01-10T14:06:35.218Z,46.54
2023-01-10T14:07:54.501Z,46.19
2023-01-10T14:10:27.713Z,46.41
2023-01-10T14:12:02.128Z,46.53
2023-01-10T14:15:54.711Z,46.78
2023-01-10T14:17:22.153Z,46.47
2023-01-10T14:18:39.300Z,46.48
2023-01-10T14:21:09.731Z,46.15
2023-01-10T14:22:33.695Z,46.50
2023-01-10T14:23:46.168Z,46.37
2023-01-10T14:24:55.648Z,46.10
2023-01-10T14:26:06.521Z,46.18
2023-01-10T14:27:16.705Z,45.95
2023-01-10T14:28:28.942Z,46.26
2023-01-10T14:29:38.405Z,45.97
2023-01-10T14:32:17.901Z,46.00
2023-01-10T14:33:29.096Z,45.93
2023-01-10T14:34:38.329Z,45.69
2023-01-10T14:37:17.586Z,45.73
2023-01-10T14:38:29.905Z,45.98
2023-01-10T14:39:41.908Z,45.64
2023-01-10T14:42:15.066Z,45.87
2023-01-10T14:43:27.887Z,45.71
2023-01-10T14:45:02.943Z,45.77
2023-01-10T14:47:38.984Z,45.99
2023-01-10T14:48:52.028Z,45.80
2023-01-10T14:51:29.290Z,45.24
2023-01-10T14:52:42.071Z,45.46
2023-01-10T14:54:01.912Z,45.72
2023-01-10T14:55:17.695Z,45.50
2023-01-10T14:56:40.354Z,45.29
2023-01-10T14:59:36.095Z,45.33
2023-01-10T15:00:45.843Z,45.48
2023-01-10T15:02:00.975Z,45.26
2023-01-10T15:03:17.714Z,45.36
2023-01-10T15:04:36.392Z,45.12
2023-01-10T15:05:51.422Z,44.94
2023-01-10T15:07:03.609Z,44.37
2023-01-10T15:09:49.953Z,44.73
2023-01-10T15:11:04.440Z,44.74
2023-01-10T15:12:15.812Z,44.65
2023-01-10T15:13:28.221Z,44.55
2023-01-10T15:14:38.197Z,44.28
2023-01-10T15:15:49.791Z,44.27
2023-01-10T15:17:05.798Z,44.22
2023-01-10T15:18:39.600Z,44.04
2023-01-10T15:19:52.698Z,44.28
2023-01-10T15:21:02.481Z,44.00
2023-01-10T15:22:33.333Z,44.13
2023-01-10T15:23:46.621Z,44.29
2023-01-10T15:25:02.501Z,44.29
2023-01-10T15:26:17.783Z,44.25
2023-01-10T15:27:28.078Z,43.79
2023-01-10T15:28:37.690Z,44.15
2023-01-10T15:29:46.931Z,43.78
2023-01-10T15:32:23.260Z,43.48
2023-01-10T15:33:35.202Z,43.30
2023-01-10T15:34:48.689Z,43.56
2023-01-10T15:36:04.264Z,43.16
2023-01-10T15:38:38.171Z,43.02
2023-01-10T15:39:47.811Z,43.58
2023-01-10T15:41:01.808Z,43.91
2023-01-10T15:42:14.386Z,43.43
2023-01-10T15:44:55.203Z,43.33
2023-01-10T15:47:40.855Z,43.34
2023-01-10T15:50:38.682Z,42.99
2023-01-10T15:51:48.314Z,42.77
2023-01-10T15:54:22.823Z,42.30
2023-01-10T15:55:42.478Z,42.59
2023-01-10T15:56:57.447Z,42.88
2023-01-10T15:58:27.193Z,42.81
2023-01-10T15:59:44.177Z,42.61
2023-01-10T16:00:55.542Z,43.00
2023-01-10T16:02:22.848Z,42.74
2023-01-10T16:05:12.959Z,41.73
2023-01-10T16:06:35.333Z,41.88
2023-01-10T16:07:46.854Z,41.99
2023-01-10T16:08:58.479Z,42.11
2023-01-10T16:10:26.691Z,42.25
2023-01-10T16:12:08.878Z,42.18
2023-01-10T20:17:23.608Z,62.36
2023-01-10T20:19:49.085Z,61.96
2023-01-10T20:22:13.844Z,61.25
2023-01-10T20:23:23.563Z,60.98
2023-01-10T20:24:32.777Z,60.05
2023-01-10T20:25:41.750Z,60.46
2023-01-10T20:26:51.362Z,60.62
2023-01-10T20:28:00.393Z,60.51
2023-01-10T20:29:10.570Z,60.32
2023-01-10T20:30:20.029Z,60.26
2023-01-10T20:31:30.114Z,59.47
2023-01-10T20:32:38.654Z,59.50
2023-01-10T20:33:47.678Z,58.87
2023-01-10T20:34:56.353Z,59.26
2023-01-10T20:36:11.154Z,59.31
2023-01-10T20:37:19.780Z,59.29
2023-01-10T20:38:29.918Z,59.24
2023-01-10T20:42:26.742Z,60.23
2023-01-10T20:43:36.787Z,59.76
2023-01-10T20:44:46.414Z,59.37
2023-01-10T20:45:56.315Z,59.60
2023-01-10T20:47:05.547Z,59.43
2023-01-10T20:48:14.146Z,59.44
2023-01-10T20:49:23.721Z,59.11
2023-01-10T20:50:33.346Z,59.44
2023-01-10T20:51:41.944Z,59.83
2023-01-10T20:52:50.955Z,59.93
2023-01-10T20:54:00.074Z,60.26
2023-01-10T20:55:09.693Z,60.29
2023-01-10T20:56:25.187Z,60.65
2023-01-10T20:57:33.695Z,60.45
2023-01-10T20:58:42.734Z,60.54
2023-01-10T20:59:51.304Z,60.44
2023-01-10T21:01:01.527Z,60.81
2023-01-10T21:02:11.057Z,60.91
2023-01-10T21:03:21.764Z,61.14
2023-01-10T21:04:30.367Z,60.73
2023-01-10T21:05:39.367Z,60.07
2023-01-10T21:06:48.103Z,59.85
2023-01-10T21:07:57.178Z,59.75
2023-01-10T21:09:06.095Z,59.27
2023-01-10T21:10:16.129Z,59.28
2023-01-10T21:11:24.866Z,59.54
2023-01-10T21:12:33.967Z,59.22
2023-01-10T21:13:44.019Z,59.76
2023-01-10T21:14:53.326Z,59.46
2023-01-10T21:17:18.419Z,59.00
2023-01-10T21:18:41.712Z,58.70
2023-01-10T21:19:50.975Z,58.58
2023-01-10T21:21:01.630Z,58.41
2023-01-10T21:22:10.981Z,58.66
2023-01-10T21:23:20.789Z,58.92
2023-01-10T21:24:31.481Z,59.31
2023-01-10T21:25:40.825Z,58.91
2023-01-10T21:26:49.717Z,58.80
2023-01-10T21:27:58.202Z,58.91
2023-01-10T21:29:06.712Z,59.19
2023-01-10T21:30:20.440Z,58.95
2023-01-10T21:31:30.052Z,59.11
2023-01-10T21:32:38.736Z,58.91
2023-01-10T21:33:48.985Z,57.93
2023-01-10T21:36:13.221Z,58.51
2023-01-10T21:37:22.895Z,58.13
2023-01-10T21:38:32.339Z,58.23
2023-01-10T21:39:42.047Z,57.99
2023-01-10T21:40:51.688Z,58.28
2023-01-10T21:42:19.395Z,58.50
2023-01-10T21:43:31.643Z,59.34
2023-01-10T21:44:40.162Z,59.57
2023-01-10T21:45:49.407Z,59.66
2023-01-10T21:46:59.517Z,59.99
2023-01-10T21:48:08.272Z,59.73
2023-01-10T21:49:16.918Z,59.15
2023-01-10T21:50:29.541Z,58.93
2023-01-10T21:51:38.566Z,58.51
2023-01-10T21:52:47.551Z,58.77
2023-01-10T21:53:57.323Z,58.92
2023-01-10T21:55:09.809Z,58.43
2023-01-10T21:56:20.936Z,58.76
2023-01-10T21:57:30.769Z,58.72
2023-01-10T21:58:40.196Z,58.48
2023-01-10T21:59:50.665Z,58.15
2023-01-10T22:00:59.461Z,57.64
2023-01-10T22:02:15.643Z,57.78
2023-01-10T22:03:24.753Z,57.83
2023-01-10T22:04:34.034Z,57.83
2023-01-10T22:05:42.568Z,58.14
2023-01-10T22:06:51.430Z,57.65
2023-01-10T22:08:00.042Z,57.30
2023-01-10T22:09:09.086Z,56.97
2023-01-10T22:10:19.818Z,57.09
2023-01-10T22:11:28.872Z,57.45
2023-01-10T22:12:38.821Z,56.72
2023-01-10T22:15:04.473Z,56.58
2023-01-10T22:16:15.611Z,56.59
2023-01-10T22:17:24.644Z,56.42
2023-01-10T22:18:33.979Z,56.33
2023-01-10T22:19:43.132Z,56.42
2023-01-10T22:20:56.261Z,55.31
2023-01-10T22:22:05.906Z,55.57
2023-01-10T22:23:14.995Z,55.73
